createdAt,value
2022-12-10T00:21:46.289Z,1.33
2022-12-10T01:54:45.364Z,1.44
2022-12-10T03:11:44.587Z,1.94
2022-12-10T03:53:44.162Z,2.21
2022-12-10T04:04:44.054Z,2.08
2022-12-10T05:15:43.379Z,2.60
2022-12-10T06:18:42.701Z,2.88
2022-12-10T06:19:42.693Z,2.71
2022-12-10T06:20:47.265Z,3.09
2022-12-10T06:21:42.692Z,2.94
2022-12-10T06:22:42.661Z,3.10
2022-12-10T06:26:42.619Z,3.17
2022-12-10T06:27:42.608Z,3.17
2022-12-10T06:28:42.596Z,2.99
2022-12-10T06:31:42.585Z,3.19
2022-12-10T06:32:42.557Z,3.12
2022-12-10T06:33:42.545Z,3.00
2022-12-10T06:34:43.160Z,2.88
2022-12-10T06:35:42.528Z,3.01
2022-12-10T06:36:42.516Z,2.96
2022-12-10T06:37:42.537Z,2.89
2022-12-10T06:38:42.498Z,2.97
2022-12-10T06:39:42.486Z,2.89
2022-12-10T06:40:42.474Z,3.12
2022-12-10T06:41:42.470Z,3.03
2022-12-10T06:42:42.457Z,2.62
2022-12-10T06:43:42.448Z,3.27
2022-12-10T06:44:42.435Z,2.79
2022-12-10T06:45:42.428Z,3.14
2022-12-10T06:46:42.468Z,3.25
2022-12-10T06:47:43.295Z,3.19
2022-12-10T06:48:42.406Z,3.24
2022-12-10T06:49:42.387Z,3.17
2022-12-10T06:50:42.378Z,3.17
2022-12-10T06:51:42.364Z,2.91
2022-12-10T06:52:42.353Z,3.15
2022-12-10T06:53:42.384Z,3.17
2022-12-10T06:54:42.344Z,3.06
2022-12-10T06:55:42.325Z,2.86
2022-12-10T06:56:42.316Z,3.21
2022-12-10T06:57:42.307Z,3.15
2022-12-10T06:58:42.294Z,3.28
2022-12-10T06:59:42.287Z,3.25
2022-12-10T07:00:42.276Z,3.19
2022-12-10T07:01:42.370Z,3.46
2022-12-10T07:02:42.331Z,3.29
2022-12-10T07:03:42.246Z,3.21
2022-12-10T07:04:42.237Z,3.17
2022-12-10T07:05:42.223Z,3.10
2022-12-10T07:06:42.213Z,3.17
2022-12-10T07:07:42.261Z,3.18
2022-12-10T07:08:42.196Z,3.14
2022-12-10T07:09:42.210Z,3.15
2022-12-10T07:10:42.174Z,3.25
2022-12-10T07:11:42.162Z,3.25
2022-12-10T07:12:42.162Z,3.03
2022-12-10T07:13:42.142Z,3.22
2022-12-10T07:14:42.136Z,3.09
2022-12-10T07:15:42.174Z,3.12
2022-12-10T07:16:42.111Z,3.21
2022-12-10T07:17:42.109Z,3.33
2022-12-10T07:18:45.100Z,3.22
2022-12-10T07:19:42.081Z,2.92
2022-12-10T07:20:42.073Z,3.06
2022-12-10T07:21:42.061Z,3.01
2022-12-10T07:22:42.054Z,3.33
2022-12-10T07:23:42.044Z,3.19
2022-12-10T07:24:42.109Z,3.27
2022-12-10T07:25:42.047Z,3.12
2022-12-10T07:26:42.011Z,3.12
2022-12-10T07:27:42.004Z,3.25
2022-12-10T07:28:52.177Z,3.18
2022-12-10T07:29:43.003Z,3.22
2022-12-10T07:30:41.974Z,3.51
2022-12-10T07:31:42.000Z,3.19
2022-12-10T07:32:41.955Z,3.63
2022-12-10T07:33:41.945Z,3.32
2022-12-10T07:34:41.936Z,3.46
2022-12-10T07:35:47.532Z,3.28
2022-12-10T07:36:42.929Z,3.33
2022-12-10T07:37:41.904Z,3.46
2022-12-10T07:38:41.892Z,3.43
2022-12-10T07:39:41.884Z,3.46
2022-12-10T07:40:41.874Z,3.28
2022-12-10T07:41:41.892Z,3.29
2022-12-10T07:42:41.854Z,3.45
2022-12-10T07:43:41.843Z,3.54
2022-12-10T07:44:46.199Z,3.37
2022-12-10T07:45:42.839Z,3.47
2022-12-10T07:46:41.839Z,3.65
2022-12-10T07:47:41.804Z,3.54
2022-12-10T07:48:41.792Z,3.50
2022-12-10T07:49:41.787Z,3.55
2022-12-10T07:50:41.776Z,3.64
2022-12-10T07:51:41.765Z,3.54
2022-12-10T07:52:41.756Z,3.45
2022-12-10T07:53:41.747Z,3.60
2022-12-10T07:54:41.734Z,3.75
2022-12-10T07:55:41.725Z,3.45
2022-12-10T07:56:41.715Z,3.69
2022-12-10T07:57:41.724Z,3.79
2022-12-10T07:58:41.691Z,3.67
2022-12-10T07:59:41.681Z,3.55
2022-12-10T08:00:41.727Z,3.76
2022-12-10T08:01:41.662Z,3.65
2022-12-10T08:02:41.692Z,3.53
2022-12-10T08:03:41.644Z,3.73
2022-12-10T08:04:41.631Z,3.65
2022-12-10T08:05:41.622Z,3.60
2022-12-10T08:06:41.615Z,3.67
2022-12-10T08:07:41.642Z,3.82
2022-12-10T08:08:41.674Z,3.64
2022-12-10T08:09:41.581Z,3.53
2022-12-10T08:10:41.571Z,3.54
2022-12-10T08:11:41.561Z,3.82
2022-12-10T08:12:41.552Z,3.67
2022-12-10T08:13:41.571Z,3.78
2022-12-10T08:14:41.532Z,3.96
2022-12-10T08:15:41.524Z,3.85
2022-12-10T08:16:41.542Z,3.85
2022-12-10T08:17:41.499Z,4.04
2022-12-10T08:18:41.490Z,3.97
2022-12-10T08:19:41.480Z,4.08
2022-12-10T08:20:41.471Z,3.91
2022-12-10T08:21:41.460Z,4.16
2022-12-10T08:22:41.448Z,4.34
2022-12-10T08:23:41.439Z,4.33
2022-12-10T08:24:41.430Z,4.27
2022-12-10T08:25:41.420Z,4.27
2022-12-10T08:26:41.413Z,4.08
2022-12-10T08:27:41.400Z,4.35
2022-12-10T08:28:41.389Z,4.28
2022-12-10T08:29:41.406Z,4.26
2022-12-10T08:30:41.371Z,4.26
2022-12-10T08:31:41.377Z,4.31
2022-12-10T08:32:41.402Z,4.48
2022-12-10T08:33:41.340Z,4.41
2022-12-10T08:34:41.336Z,4.55
2022-12-10T08:35:41.317Z,4.41
2022-12-10T08:36:41.310Z,4.55
2022-12-10T08:37:41.296Z,4.71
2022-12-10T08:38:41.336Z,4.61
2022-12-10T08:39:41.290Z,4.67
2022-12-10T08:40:41.269Z,4.56
2022-12-10T08:41:41.255Z,4.41
2022-12-10T08:42:41.248Z,4.43
2022-12-10T08:43:41.242Z,4.35
2022-12-10T08:44:41.225Z,4.20
2022-12-10T08:45:41.279Z,4.27
2022-12-10T08:46:41.203Z,3.81
2022-12-10T08:47:41.195Z,3.81
2022-12-10T08:48:41.188Z,3.79
2022-12-10T08:49:41.179Z,3.76
2022-12-10T08:50:41.166Z,4.35
2022-12-10T08:51:41.156Z,3.94
2022-12-10T08:52:41.145Z,4.52
2022-12-10T08:53:41.136Z,4.52
2022-12-10T08:54:41.123Z,4.03
2022-12-10T08:55:45.967Z,4.15
2022-12-10T08:56:42.123Z,4.20
2022-12-10T08:57:41.094Z,4.30
2022-12-10T08:58:41.085Z,4.33
2022-12-10T08:59:41.072Z,4.87
2022-12-10T09:00:41.161Z,4.76
2022-12-10T09:01:41.074Z,4.66
2022-12-10T09:02:41.099Z,4.74
2022-12-10T09:03:41.036Z,4.27
2022-12-10T09:04:41.018Z,4.73
2022-12-10T09:05:41.012Z,4.61
2022-12-10T09:06:41.001Z,4.33
2022-12-10T09:07:41.121Z,4.34
2022-12-10T09:08:40.977Z,4.94
2022-12-10T09:09:40.966Z,4.40
2022-12-10T09:10:40.956Z,4.35
2022-12-10T09:11:40.948Z,4.31
2022-12-10T09:12:40.939Z,4.20
2022-12-10T09:13:40.928Z,4.97
2022-12-10T09:14:40.919Z,4.80
2022-12-10T09:15:40.904Z,5.05
2022-12-10T09:16:40.939Z,4.97
2022-12-10T09:17:40.912Z,5.05
2022-12-10T09:18:40.876Z,4.82
2022-12-10T09:19:40.864Z,4.82
2022-12-10T09:20:40.853Z,4.30
2022-12-10T09:21:40.844Z,4.35
2022-12-10T09:22:40.832Z,4.43
2022-12-10T09:23:40.825Z,4.40
2022-12-10T09:24:40.819Z,4.85
2022-12-10T09:25:40.801Z,4.84
2022-12-10T09:26:40.794Z,4.89
2022-12-10T09:27:40.781Z,4.37
2022-12-10T09:28:40.775Z,4.48
2022-12-10T09:29:40.763Z,4.52
2022-12-10T09:30:40.753Z,4.31
2022-12-10T09:31:40.778Z,4.67
2022-12-10T09:32:40.733Z,4.91
2022-12-10T09:33:40.742Z,4.97
2022-12-10T09:34:40.710Z,5.00
2022-12-10T09:35:40.702Z,5.25
2022-12-10T09:36:40.694Z,5.28
2022-12-10T09:37:40.679Z,5.46
2022-12-10T09:38:40.673Z,5.27
2022-12-10T09:39:40.662Z,5.27
2022-12-10T09:40:40.654Z,4.74
2022-12-10T09:41:40.638Z,4.79
2022-12-10T09:42:40.635Z,5.18
2022-12-10T09:43:40.621Z,4.82
2022-12-10T09:44:40.611Z,5.24
2022-12-10T09:45:40.657Z,5.03
2022-12-10T09:46:40.591Z,4.79
2022-12-10T09:47:40.578Z,5.27
2022-12-10T09:48:40.568Z,4.88
2022-12-10T09:49:40.587Z,5.35
2022-12-10T09:50:40.547Z,5.41
2022-12-10T09:51:40.540Z,5.32
2022-12-10T09:52:40.530Z,5.30
2022-12-10T09:53:40.517Z,5.57
2022-12-10T09:54:40.505Z,5.28
2022-12-10T09:55:40.497Z,5.62
2022-12-10T09:56:40.490Z,5.62
2022-12-10T09:57:40.481Z,5.57
2022-12-10T09:58:40.469Z,5.27
2022-12-10T09:59:40.460Z,5.43
2022-12-10T10:00:40.447Z,5.61
2022-12-10T10:01:40.435Z,5.72
2022-12-10T10:02:40.470Z,5.86
2022-12-10T10:03:40.420Z,6.04
2022-12-10T10:04:40.405Z,6.08
2022-12-10T10:05:40.422Z,5.69
2022-12-10T10:06:40.388Z,5.95
2022-12-10T10:07:40.377Z,6.23
2022-12-10T10:08:40.368Z,5.80
2022-12-10T10:09:40.358Z,6.28
2022-12-10T10:10:40.345Z,6.03
2022-12-10T10:11:40.338Z,6.05
2022-12-10T10:12:40.323Z,6.48
2022-12-10T10:13:40.316Z,6.47
2022-12-10T10:14:40.306Z,6.37
2022-12-10T10:15:40.297Z,6.43
2022-12-10T10:16:40.371Z,6.55
2022-12-10T10:17:40.272Z,6.48
2022-12-10T10:18:40.262Z,6.79
2022-12-10T10:19:40.255Z,6.54
2022-12-10T10:20:40.245Z,6.72
2022-12-10T10:21:40.264Z,7.02
2022-12-10T10:22:40.224Z,6.92
2022-12-10T10:23:40.214Z,6.69
2022-12-10T10:24:40.201Z,7.17
2022-12-10T10:25:40.191Z,7.14
2022-12-10T10:26:40.180Z,6.82
2022-12-10T10:27:40.171Z,7.21
2022-12-10T10:28:40.162Z,7.31
2022-12-10T10:29:40.149Z,6.80
2022-12-10T10:30:40.200Z,7.14
2022-12-10T10:31:40.131Z,6.80
2022-12-10T10:32:40.123Z,6.87
2022-12-10T10:33:40.113Z,7.05
2022-12-10T10:34:40.099Z,7.79
2022-12-10T10:35:40.094Z,8.47
2022-12-10T10:36:40.076Z,8.87
2022-12-10T10:37:40.095Z,8.69
2022-12-10T10:38:40.059Z,8.51
2022-12-10T10:39:40.147Z,8.03
2022-12-10T10:40:40.035Z,8.47
2022-12-10T10:41:40.028Z,8.75
2022-12-10T10:42:40.018Z,9.00
2022-12-10T10:43:40.008Z,9.15
2022-12-10T10:54:22.319Z,9.10
2022-12-10T10:54:23.725Z,12.50
2022-12-10T10:55:47.370Z,13.01
2022-12-10T10:58:34.335Z,13.64
2022-12-10T10:58:35.730Z,13.99
2022-12-10T11:03:52.741Z,13.46
2022-12-10T11:03:54.151Z,13.48
2022-12-10T11:04:54.138Z,13.49
2022-12-10T11:05:54.130Z,13.30
2022-12-10T11:06:54.118Z,12.37
2022-12-10T11:07:54.134Z,12.32
2022-12-10T11:08:54.103Z,12.19
2022-12-10T11:41:45.410Z,12.63
2022-12-10T11:41:46.821Z,16.61
2022-12-10T11:42:46.818Z,16.09
2022-12-10T11:44:05.801Z,16.35
2022-12-10T11:44:46.790Z,16.19
2022-12-10T11:45:46.839Z,15.21
2022-12-10T11:46:54.190Z,15.41
2022-12-10T11:47:47.515Z,15.08
2022-12-10T11:48:46.753Z,15.02
2022-12-10T11:49:46.747Z,14.22
2022-12-10T11:51:40.860Z,14.11
2022-12-10T11:55:33.134Z,14.37
2022-12-10T11:55:34.512Z,13.55
2022-12-10T11:56:34.506Z,13.27
2022-12-10T11:57:34.523Z,13.06
2022-12-10T11:58:34.484Z,12.94
2022-12-10T12:00:39.391Z,11.91
2022-12-10T12:00:40.801Z,11.32
2022-12-10T12:05:27.060Z,12.29
2022-12-10T12:05:28.438Z,14.76
2022-12-10T12:07:17.357Z,15.42
2022-12-10T12:07:28.419Z,15.79
2022-12-10T13:04:29.209Z,15.31
2022-12-10T13:04:30.619Z,16.45
2022-12-10T13:05:30.612Z,16.65
2022-12-10T14:37:10.868Z,16.91
2022-12-10T14:37:12.269Z,16.52
2022-12-10T14:38:12.269Z,16.38
2022-12-10T14:39:12.252Z,16.15
2022-12-10T14:40:12.526Z,15.75
2022-12-10T14:41:12.233Z,15.94
2022-12-10T14:42:12.223Z,16.05
2022-12-10T14:43:12.213Z,15.70
2022-12-10T14:44:12.207Z,15.16
2022-12-10T14:45:12.194Z,14.62
2022-12-10T14:46:12.221Z,14.30
2022-12-10T14:47:12.174Z,14.45
2022-12-10T14:48:12.163Z,14.80
2022-12-10T14:49:12.158Z,14.37
2022-12-10T14:50:12.147Z,14.55
2022-12-10T14:51:12.134Z,14.55
2022-12-10T14:52:12.123Z,14.47
2022-12-10T14:53:12.148Z,14.38
2022-12-10T14:54:12.109Z,14.36
2022-12-10T14:55:12.097Z,14.59
2022-12-10T14:56:12.091Z,14.22
2022-12-10T14:57:12.076Z,14.33
2022-12-10T14:58:12.066Z,14.25
2022-12-10T14:59:12.055Z,14.61
2022-12-10T15:00:12.493Z,14.45
2022-12-10T15:01:12.036Z,14.50
2022-12-10T15:02:12.031Z,14.56
2022-12-10T15:03:12.125Z,14.65
2022-12-10T15:04:12.035Z,14.61
2022-12-10T15:05:11.997Z,14.58
2022-12-10T15:06:11.986Z,14.18
2022-12-10T15:07:11.980Z,13.54
2022-12-10T15:08:11.987Z,12.75
2022-12-10T15:09:11.982Z,12.24
2022-12-10T15:10:15.115Z,11.94
2022-12-10T15:11:11.935Z,11.35
2022-12-10T15:12:11.926Z,11.18
2022-12-10T15:13:11.919Z,11.33
2022-12-10T15:14:11.906Z,11.58
2022-12-10T15:15:11.900Z,11.40
2022-12-10T15:16:11.928Z,11.44
2022-12-10T15:17:11.879Z,11.40
2022-12-10T15:18:11.865Z,11.19
2022-12-10T15:19:11.858Z,10.99
2022-12-10T15:20:12.079Z,10.56
2022-12-10T15:21:11.837Z,10.45
2022-12-10T15:22:11.826Z,10.56
2022-12-10T15:23:11.822Z,10.70
2022-12-10T15:24:11.806Z,10.73
2022-12-10T15:25:11.821Z,10.96
2022-12-10T15:26:11.793Z,11.04
2022-12-10T15:27:11.773Z,10.95
2022-12-10T15:28:11.767Z,10.94
2022-12-10T15:29:18.257Z,10.76
2022-12-10T15:30:12.809Z,10.86
2022-12-10T15:31:11.826Z,10.70
2022-12-10T15:32:11.726Z,10.67
2022-12-10T15:33:11.713Z,10.71
2022-12-10T15:34:11.702Z,10.56
2022-12-10T15:35:18.112Z,10.35
2022-12-10T15:36:11.685Z,10.18
2022-12-10T15:37:11.676Z,10.00
2022-12-10T15:38:11.662Z,9.80
2022-12-10T15:39:11.652Z,9.58
2022-12-10T15:40:12.063Z,9.31
2022-12-10T15:41:15.035Z,9.39
2022-12-10T15:42:12.646Z,9.07
2022-12-10T15:43:11.615Z,9.03
2022-12-10T15:44:11.607Z,8.82
2022-12-10T15:45:11.595Z,8.62
2022-12-10T15:46:11.659Z,8.81
2022-12-10T15:47:11.571Z,8.45
2022-12-10T15:48:12.598Z,8.25
2022-12-10T15:49:11.550Z,8.14
2022-12-10T15:50:11.880Z,8.03
2022-12-10T15:51:11.530Z,8.14
2022-12-10T15:52:11.522Z,7.85
2022-12-10T15:53:11.613Z,7.64
2022-12-10T15:54:11.499Z,7.50
2022-12-10T15:55:11.487Z,7.20
2022-12-10T15:56:11.479Z,7.36
2022-12-10T15:57:11.495Z,7.05
2022-12-10T15:58:11.464Z,6.88
2022-12-10T15:59:11.449Z,6.79
2022-12-10T16:00:14.925Z,6.64
2022-12-10T16:01:12.505Z,6.61
2022-12-10T16:02:11.447Z,6.61
2022-12-10T16:03:11.409Z,6.22
2022-12-10T16:04:11.398Z,6.38
2022-12-10T16:05:11.412Z,6.25
2022-12-10T16:06:15.418Z,6.13
2022-12-10T16:07:12.394Z,6.31
2022-12-10T16:08:11.433Z,6.18
2022-12-10T16:09:11.347Z,6.18
2022-12-10T16:10:11.774Z,6.10
2022-12-10T16:11:11.326Z,5.92
2022-12-10T16:12:11.318Z,6.11
2022-12-10T16:13:11.333Z,6.08
2022-12-10T16:14:11.296Z,5.92
2022-12-10T16:15:11.289Z,5.94
2022-12-10T16:16:11.391Z,5.79
2022-12-10T16:17:11.268Z,5.82
2022-12-10T16:18:11.258Z,5.65
2022-12-10T16:19:11.246Z,5.64
2022-12-10T16:20:11.596Z,5.67
2022-12-10T16:21:11.255Z,5.49
2022-12-10T16:26:11.176Z,5.28
2022-12-10T16:33:11.107Z,4.91
2022-12-10T16:34:11.099Z,4.97
2022-12-10T16:35:11.085Z,5.12
2022-12-10T16:36:11.071Z,5.16
2022-12-10T16:49:10.939Z,4.26
2022-12-10T18:01:10.313Z,4.53
2022-12-10T18:12:10.108Z,5.61
2022-12-10T18:13:10.098Z,5.35
2022-12-10T18:34:09.885Z,6.88
2022-12-10T18:35:10.154Z,6.90
2022-12-10T18:39:09.830Z,6.90
2022-12-10T18:40:09.824Z,7.02
2022-12-10T20:15:09.056Z,6.05
